Time;durP1;ratioP1;P1;durP2;ratioP2;P2;SDS_P1;SDS_P2;PMS_P1;PMS_P2;Temp;Humidity;BMP_temperature;BMP_pressure;BME280_temperature;BME280_humidity;BME280_pressure;Samples;Min_cycle;Max_cycle;Signal;HPM_P1;HPM_P2
2023/10/01 00:00:26;;;;;;;9.95;4.82;;;15.90;99.90;;;;;;5038454;28;20101;-66
2023/10/01 00:02:53;;;;;;;9.38;4.60;;;15.90;99.90;;;;;;5038007;28;20100;-65
2023/10/01 00:05:22;;;;;;;8.45;4.68;;;15.90;99.90;;;;;;5038388;28;20029;-65
2023/10/01 00:07:51;;;;;;;11.43;5.30;;;15.90;99.90;;;;;;5038284;28;20033;-65
2023/10/01 00:10:17;;;;;;;9.63;4.65;;;15.80;99.90;;;;;;5038092;28;20013;-66
2023/10/01 00:13:01;;;;;;;9.10;4.03;;;15.80;99.90;;;;;;5038091;28;20083;-65
2023/10/01 00:15:28;;;;;;;12.38;4.70;;;15.80;99.90;;;;;;5036777;28;20082;-66
2023/10/01 00:17:54;;;;;;;11.18;4.93;;;15.80;99.90;;;;;;5038101;28;20108;-66
2023/10/01 00:20:23;;;;;;;8.90;4.70;;;15.80;99.90;;;;;;5037849;28;20045;-65
2023/10/01 00:23:05;;;;;;;9.68;4.40;;;15.80;99.90;;;;;;5036703;28;20022;-66
2023/10/01 00:25:34;;;;;;;10.20;4.17;;;15.70;99.90;;;;;;5037724;28;20085;-65
2023/10/01 00:28:01;;;;;;;8.48;4.47;;;15.70;99.90;;;;;;5037868;28;20347;-65
2023/10/01 00:30:34;;;;;;;7.82;4.15;;;15.70;99.90;;;;;;5036495;28;20025;-65
2023/10/01 00:33:02;;;;;;;9.02;4.32;;;15.70;99.90;;;;;;5037640;28;20493;-65
2023/10/01 00:35:29;;;;;;;8.02;4.00;;;15.70;99.90;;;;;;5037187;28;20152;-65
2023/10/01 00:37:55;;;;;;;8.32;4.45;;;15.70;99.90;;;;;;5037831;28;20021;-65
2023/10/01 00:40:20;;;;;;;10.10;4.22;;;15.70;99.90;;;;;;5037460;28;20115;-65
2023/10/01 00:42:46;;;;;;;8.70;4.38;;;15.70;99.90;;;;;;5037446;28;20017;-65
2023/10/01 00:45:14;;;;;;;9.13;4.35;;;15.60;99.90;;;;;;5036258;28;20405;-65
2023/10/01 00:47:41;;;;;;;8.50;4.10;;;15.60;99.90;;;;;;5037211;28;20091;-65
2023/10/01 00:50:15;;;;;;;9.15;3.88;;;15.60;99.90;;;;;;5037489;28;20018;-65
2023/10/01 00:52:41;;;;;;;8.70;4.15;;;15.60;99.90;;;;;;5037650;28;20101;-65
2023/10/01 00:55:11;;;;;;;11.95;5.00;;;15.60;99.90;;;;;;5040244;28;20026;-65
2023/10/01 00:57:39;;;;;;;10.30;4.25;;;15.60;99.90;;;;;;5037235;28;20125;-65
2023/10/01 01:00:13;;;;;;;10.52;4.20;;;15.50;99.90;;;;;;5037467;28;20037;-66
2023/10/01 01:02:46;;;;;;;11.27;4.57;;;15.50;99.90;;;;;;5035796;28;20095;-65
2023/10/01 01:05:23;;;;;;;9.80;4.35;;;15.50;99.90;;;;;;5037591;28;20030;-65
2023/10/01 01:07:49;;;;;;;8.73;4.30;;;15.50;99.90;;;;;;5037191;28;20035;-65
2023/10/01 01:10:16;;;;;;;10.32;4.60;;;15.50;99.90;;;;;;5037360;28;20021;-65
2023/10/01 01:12:45;;;;;;;12.48;4.60;;;15.50;99.90;;;;;;5037172;28;20029;-65
2023/10/01 01:15:12;;;;;;;8.57;3.90;;;15.40;99.90;;;;;;5037151;28;20112;-65
2023/10/01 01:17:39;;;;;;;11.60;4.72;;;15.40;99.90;;;;;;5035577;28;20022;-65
2023/10/01 01:20:09;;;;;;;10.38;4.53;;;15.40;99.90;;;;;;5037159;28;20109;-65
2023/10/01 01:22:37;;;;;;;9.35;4.15;;;15.40;99.90;;;;;;5037019;28;20021;-65
2023/10/01 01:25:10;;;;;;;10.48;4.32;;;15.40;99.90;;;;;;5037073;28;20071;-65
2023/10/01 01:27:40;;;;;;;9.55;4.30;;;15.40;99.90;;;;;;5037224;28;20014;-65
2023/10/01 01:30:09;;;;;;;9.50;4.35;;;15.40;99.90;;;;;;5036985;28;20028;-66
2023/10/01 01:32:36;;;;;;;10.07;4.20;;;15.30;99.90;;;;;;5037042;28;20022;-65
2023/10/01 01:35:05;;;;;;;9.50;4.20;;;15.30;99.90;;;;;;5016862;28;20062;-65
2023/10/01 01:37:36;;;;;;;10.20;4.35;;;15.30;99.90;;;;;;5037212;28;20018;-65
2023/10/01 01:40:09;;;;;;;7.80;3.65;;;15.30;99.90;;;;;;5036774;28;20025;-65
2023/10/01 01:42:35;;;;;;;7.05;3.60;;;15.30;99.90;;;;;;5036783;28;20022;-66
2023/10/01 01:45:19;;;;;;;10.57;4.35;;;15.20;99.90;;;;;;5037015;28;20431;-65
2023/10/01 01:47:45;;;;;;;11.85;4.32;;;15.20;99.90;;;;;;5040671;28;20467;-65
2023/10/01 01:50:44;;;;;;;8.10;4.03;;;15.20;99.90;;;;;;5040919;28;20037;-65
2023/10/01 01:53:04;;;;;;;9.05;4.20;;;15.20;99.90;;;;;;5040325;28;20041;-66
2023/10/01 01:55:34;;;;;;;9.15;4.07;;;15.20;99.90;;;;;;5043243;28;20053;-65
2023/10/01 02:00:35;;;;;;;9.68;4.20;;;15.20;99.90;;;;;;5040908;28;20065;-65
2023/10/01 02:03:10;;;;;;;10.27;3.95;;;15.20;99.90;;;;;;5040294;28;20024;-65
2023/10/01 02:05:47;;;;;;;10.90;4.38;;;15.10;99.90;;;;;;5040835;28;20025;-65
2023/10/01 02:08:34;;;;;;;8.88;4.53;;;15.10;99.90;;;;;;5040764;28;20018;-65
2023/10/01 02:11:04;;;;;;;9.45;4.22;;;15.10;99.90;;;;;;5038905;28;20033;-65
2023/10/01 02:13:32;;;;;;;7.72;4.05;;;15.10;99.90;;;;;;5040317;28;20018;-65
2023/10/01 02:16:18;;;;;;;8.13;4.50;;;15.10;99.90;;;;;;5040205;28;20123;-65
2023/10/01 02:18:55;;;;;;;11.18;4.18;;;15.10;99.90;;;;;;5040015;28;20028;-65
2023/10/01 02:21:42;;;;;;;9.88;4.30;;;15.10;99.90;;;;;;5040500;28;20025;-65
2023/10/01 02:24:11;;;;;;;7.68;3.75;;;15.00;99.90;;;;;;5040040;28;20068;-65
2023/10/01 02:26:38;;;;;;;7.60;3.78;;;15.10;99.90;;;;;;5040206;28;20022;-65
2023/10/01 02:29:05;;;;;;;8.32;3.95;;;15.00;99.90;;;;;;5040196;28;20022;-65
2023/10/01 02:31:34;;;;;;;10.02;4.47;;;15.00;99.90;;;;;;5040151;28;20086;-65
2023/10/01 02:34:01;;;;;;;9.65;4.15;;;15.00;99.90;;;;;;5039533;28;20032;-65
2023/10/01 02:36:27;;;;;;;9.85;4.15;;;15.10;99.90;;;;;;5040003;28;20075;-65
2023/10/01 02:38:53;;;;;;;7.75;3.53;;;15.00;99.90;;;;;;5039992;28;20112;-65
2023/10/01 02:41:25;;;;;;;7.90;3.40;;;15.00;99.90;;;;;;5036278;28;20387;-64
2023/10/01 02:43:52;;;;;;;8.50;4.20;;;15.00;99.90;;;;;;5039170;28;20038;-65
2023/10/01 02:46:26;;;;;;;8.65;4.30;;;14.90;99.90;;;;;;5038247;28;20101;-65
2023/10/01 02:48:59;;;;;;;9.52;4.32;;;14.90;99.90;;;;;;5047269;28;20079;-65
2023/10/01 02:51:32;;;;;;;8.77;4.32;;;14.90;99.90;;;;;;5038715;28;20029;-65
2023/10/01 02:54:01;;;;;;;8.63;4.05;;;14.80;99.90;;;;;;5039083;28;20030;-64
2023/10/01 02:56:34;;;;;;;9.55;4.03;;;14.80;99.90;;;;;;5037408;28;20022;-65
2023/10/01 02:59:13;;;;;;;8.07;3.75;;;14.80;99.90;;;;;;5034205;28;20702;-65
2023/10/01 03:01:42;;;;;;;11.57;4.40;;;14.80;99.90;;;;;;5038972;28;20014;-65
2023/10/01 03:04:15;;;;;;;8.25;4.10;;;14.80;99.90;;;;;;5037468;28;20025;-65
2023/10/01 03:06:55;;;;;;;10.45;4.28;;;14.80;99.90;;;;;;5036695;28;20490;-65
2023/10/01 03:09:22;;;;;;;10.82;4.78;;;14.80;99.90;;;;;;5036429;28;20029;-64
2023/10/01 03:11:53;;;;;;;10.27;4.15;;;14.80;99.90;;;;;;5037396;28;20033;-65
2023/10/01 03:14:25;;;;;;;8.73;4.30;;;14.80;99.90;;;;;;5038930;28;20548;-64
2023/10/01 03:16:54;;;;;;;8.73;4.37;;;14.80;99.90;;;;;;5038837;28;20022;-64
2023/10/01 03:19:25;;;;;;;8.63;4.30;;;14.80;99.90;;;;;;5037871;28;20072;-65
2023/10/01 03:24:32;;;;;;;11.40;4.25;;;14.70;99.90;;;;;;5037581;28;20049;-65
2023/10/01 03:27:12;;;;;;;8.20;3.90;;;14.70;99.90;;;;;;5038393;28;20017;-65
2023/10/01 03:29:41;;;;;;;9.00;4.07;;;14.80;99.90;;;;;;5038526;28;20496;-65
2023/10/01 03:32:27;;;;;;;7.57;3.67;;;14.70;99.90;;;;;;5038501;28;20081;-65
2023/10/01 03:34:53;;;;;;;10.88;3.97;;;14.70;99.90;;;;;;5037387;28;20018;-65
2023/10/01 03:37:27;;;;;;;10.27;4.57;;;14.70;99.90;;;;;;5038378;28;20046;-65
2023/10/01 03:40:04;;;;;;;8.65;4.28;;;14.70;99.90;;;;;;5038089;28;20367;-65
2023/10/01 03:42:33;;;;;;;9.80;4.05;;;14.60;99.90;;;;;;5036538;28;20104;-64
2023/10/01 03:47:27;;;;;;;10.00;4.03;;;14.70;99.90;;;;;;5038266;28;20022;-64
2023/10/01 03:49:57;;;;;;;9.38;4.28;;;14.60;99.90;;;;;;5037539;28;20071;-65
2023/10/01 03:52:29;;;;;;;7.55;3.72;;;14.60;99.90;;;;;;5038020;28;20036;-65
2023/10/01 03:57:24;;;;;;;8.85;4.22;;;14.50;99.90;;;;;;5038056;28;20277;-64
2023/10/01 03:59:53;;;;;;;8.93;4.22;;;14.50;99.90;;;;;;5037866;28;20025;-65
2023/10/01 04:05:21;;;;;;;10.07;4.38;;;14.50;99.90;;;;;;5036756;28;20025;-65
2023/10/01 04:07:50;;;;;;;11.15;5.18;;;14.40;99.90;;;;;;5036577;28;20088;-65
2023/10/01 04:10:20;;;;;;;9.70;4.22;;;14.40;99.90;;;;;;5037633;28;20033;-65
2023/10/01 04:12:58;;;;;;;10.15;4.90;;;14.40;99.90;;;;;;5038883;28;20037;-65
2023/10/01 04:15:31;;;;;;;11.32;4.70;;;14.40;99.90;;;;;;5035214;28;20029;-65
2023/10/01 04:23:29;;;;;;;8.80;4.03;;;14.40;99.90;;;;;;5037718;28;20029;-65
2023/10/01 04:26:06;;;;;;;9.80;4.10;;;14.40;99.90;;;;;;5037289;28;20026;-65
2023/10/01 04:28:36;;;;;;;9.10;4.15;;;14.40;99.90;;;;;;5035254;28;20022;-65
2023/10/01 04:31:42;;;;;;;8.82;4.05;;;14.40;99.90;;;;;;5037611;28;20473;-65
2023/10/01 04:33:52;;;;;;;9.52;4.63;;;14.40;99.90;;;;;;5034754;28;20502;-65
2023/10/01 04:36:19;;;;;;;11.63;4.20;;;14.40;99.90;;;;;;5035995;28;20013;-64
2023/10/01 04:38:48;;;;;;;9.60;4.60;;;14.40;99.90;;;;;;5033366;28;20470;-65
2023/10/01 04:41:18;;;;;;;9.48;4.47;;;14.40;99.90;;;;;;5036002;28;20029;-65
2023/10/01 04:46:30;;;;;;;10.23;4.25;;;14.30;99.90;;;;;;5033678;28;20044;-64
2023/10/01 04:48:56;;;;;;;7.75;4.20;;;14.30;99.90;;;;;;5036883;28;20014;-64
2023/10/01 04:51:22;;;;;;;7.57;3.95;;;14.30;99.90;;;;;;5036903;28;20030;-64
2023/10/01 04:53:51;;;;;;;9.02;3.88;;;14.30;99.90;;;;;;5035712;28;20032;-65
2023/10/01 04:56:25;;;;;;;9.75;4.22;;;14.30;99.90;;;;;;5036902;28;20020;-64
2023/10/01 04:58:51;;;;;;;10.68;4.40;;;14.30;99.90;;;;;;5035009;28;20038;-65
2023/10/01 05:01:23;;;;;;;10.20;3.75;;;14.30;99.90;;;;;;5035634;28;20025;-64
2023/10/01 05:03:52;;;;;;;11.20;4.15;;;14.30;99.90;;;;;;5032701;28;20025;-65
2023/10/01 05:06:19;;;;;;;9.18;3.83;;;14.30;99.90;;;;;;5035934;28;20025;-64
2023/10/01 05:08:49;;;;;;;9.15;4.30;;;14.30;99.90;;;;;;5037334;28;20026;-64
2023/10/01 05:11:21;;;;;;;9.57;4.25;;;14.30;99.90;;;;;;5037053;28;20112;-65
2023/10/01 05:13:47;;;;;;;11.05;4.55;;;14.20;99.90;;;;;;5037211;28;20022;-65
2023/10/01 05:16:18;;;;;;;11.45;4.47;;;14.20;99.90;;;;;;5037381;28;20049;-65
2023/10/01 05:18:45;;;;;;;10.00;4.60;;;14.20;99.90;;;;;;5036977;28;20017;-65
2023/10/01 05:21:18;;;;;;;10.15;4.35;;;14.20;99.90;;;;;;5040889;28;20520;-65
2023/10/01 05:23:45;;;;;;;10.75;4.70;;;14.20;99.90;;;;;;5043988;28;20425;-64
2023/10/01 05:26:11;;;;;;;8.85;3.72;;;14.20;99.90;;;;;;5043920;28;20483;-65
2023/10/01 05:28:42;;;;;;;8.73;3.97;;;14.20;99.90;;;;;;5042266;28;20035;-65
2023/10/01 05:31:09;;;;;;;9.20;4.15;;;14.20;99.90;;;;;;5043799;28;20519;-65
2023/10/01 05:33:38;;;;;;;9.73;4.40;;;14.20;99.90;;;;;;5043388;28;20424;-64
2023/10/01 05:36:05;;;;;;;8.88;4.47;;;14.20;99.90;;;;;;5043685;28;20021;-64
2023/10/01 05:38:35;;;;;;;9.05;4.60;;;14.20;99.90;;;;;;5043744;28;20492;-64
2023/10/01 05:41:05;;;;;;;9.32;4.32;;;14.20;99.90;;;;;;5043351;28;20028;-64
2023/10/01 05:43:37;;;;;;;8.18;3.92;;;14.20;99.90;;;;;;5043457;28;20044;-64
2023/10/01 05:46:08;;;;;;;9.43;4.82;;;14.10;99.90;;;;;;5042289;28;20057;-65
2023/10/01 05:48:41;;;;;;;9.57;4.60;;;14.20;99.90;;;;;;5043226;28;20032;-64
2023/10/01 05:51:14;;;;;;;11.10;5.07;;;14.10;99.90;;;;;;5042202;28;20060;-65
2023/10/01 05:53:42;;;;;;;9.70;4.15;;;14.10;99.90;;;;;;5042183;28;20403;-64
2023/10/01 05:56:10;;;;;;;10.57;4.00;;;14.10;99.90;;;;;;5044159;28;20028;-65
2023/10/01 05:58:36;;;;;;;11.07;4.03;;;14.10;99.90;;;;;;5042438;28;20044;-64
2023/10/01 06:01:05;;;;;;;8.90;4.03;;;14.10;99.90;;;;;;5042819;28;20021;-65
2023/10/01 06:03:40;;;;;;;7.93;3.83;;;14.10;99.90;;;;;;5036313;28;20036;-64
2023/10/01 06:06:23;;;;;;;10.82;4.20;;;14.10;99.90;;;;;;5037853;28;20071;-64
2023/10/01 06:08:58;;;;;;;10.27;4.07;;;14.10;99.90;;;;;;5043880;28;20034;-64
2023/10/01 06:11:38;;;;;;;8.93;4.28;;;14.10;99.90;;;;;;5043643;28;20025;-64
2023/10/01 06:14:04;;;;;;;12.15;4.47;;;14.10;99.90;;;;;;5042645;28;20021;-65
2023/10/01 06:16:37;;;;;;;9.48;4.18;;;14.10;99.90;;;;;;5041475;28;20043;-64
2023/10/01 06:19:03;;;;;;;8.73;4.22;;;14.10;99.90;;;;;;5042525;28;20049;-64
2023/10/01 06:21:31;;;;;;;10.48;4.30;;;14.10;99.90;;;;;;5042857;28;20473;-65
2023/10/01 06:24:04;;;;;;;9.48;4.18;;;14.10;99.90;;;;;;5042785;28;20026;-65
2023/10/01 06:26:37;;;;;;;8.80;3.83;;;14.20;99.90;;;;;;5040387;28;20025;-64
2023/10/01 06:29:07;;;;;;;9.02;4.00;;;14.20;99.90;;;;;;5042767;28;20033;-64
2023/10/01 06:34:21;;;;;;;10.70;4.60;;;14.30;99.90;;;;;;5037850;28;20394;-65
2023/10/01 06:36:51;;;;;;;9.32;4.32;;;14.30;99.90;;;;;;5039386;28;20024;-64
2023/10/01 06:39:20;;;;;;;7.97;3.97;;;14.30;99.90;;;;;;5039359;28;20037;-64
2023/10/01 06:41:50;;;;;;;10.65;4.90;;;14.40;99.90;;;;;;5038921;28;20056;-64
2023/10/01 06:44:16;;;;;;;10.70;4.20;;;14.40;99.90;;;;;;5039329;28;20021;-65
2023/10/01 06:46:42;;;;;;;9.45;4.55;;;14.50;99.90;;;;;;5038046;28;20022;-65
2023/10/01 06:49:08;;;;;;;8.20;3.70;;;14.50;99.90;;;;;;5036464;28;20023;-65
2023/10/01 06:51:44;;;;;;;8.45;4.35;;;14.50;99.90;;;;;;5039310;28;20450;-65
2023/10/01 06:54:13;;;;;;;10.23;4.43;;;14.60;99.90;;;;;;5037115;28;20060;-65
2023/10/01 06:56:48;;;;;;;11.45;4.28;;;14.70;99.90;;;;;;5039036;28;20017;-64
2023/10/01 06:59:16;;;;;;;9.43;4.28;;;14.80;99.90;;;;;;5037175;28;20044;-65
2023/10/01 07:01:56;;;;;;;10.98;4.50;;;14.80;99.90;;;;;;5039150;28;20030;-65
2023/10/01 07:04:23;;;;;;;9.75;4.40;;;14.90;99.90;;;;;;5036855;28;20022;-64
2023/10/01 07:06:50;;;;;;;11.55;4.50;;;15.00;99.90;;;;;;5036595;28;20060;-65
2023/10/01 07:09:34;;;;;;;8.65;4.43;;;15.00;99.90;;;;;;5038817;28;20108;-64
2023/10/01 07:12:02;;;;;;;9.65;4.05;;;15.10;99.90;;;;;;5037785;28;20026;-64
2023/10/01 07:14:45;;;;;;;10.13;4.18;;;15.10;99.90;;;;;;5036502;28;20022;-65
2023/10/01 07:17:15;;;;;;;9.02;4.22;;;15.20;99.90;;;;;;5036371;28;20028;-65
2023/10/01 07:19:45;;;;;;;10.75;4.70;;;15.30;99.90;;;;;;5038710;28;20021;-65
2023/10/01 07:22:14;;;;;;;10.55;4.28;;;15.40;99.90;;;;;;5036354;28;20029;-65
2023/10/01 07:24:40;;;;;;;8.95;4.05;;;15.40;99.90;;;;;;5038722;28;20025;-65
2023/10/01 07:27:07;;;;;;;8.05;4.15;;;15.50;99.90;;;;;;5038462;28;20052;-64
2023/10/01 07:29:41;;;;;;;9.57;4.60;;;15.60;99.90;;;;;;5038608;28;20096;-65
2023/10/01 07:32:08;;;;;;;11.40;4.28;;;15.70;99.90;;;;;;5038215;28;20022;-64
2023/10/01 07:34:37;;;;;;;8.43;3.97;;;15.80;99.90;;;;;;5038366;28;20052;-64
2023/10/01 07:37:06;;;;;;;9.48;4.10;;;15.90;99.90;;;;;;5038233;28;20087;-64
2023/10/01 07:39:34;;;;;;;8.65;4.45;;;16.00;99.90;;;;;;5038299;28;20043;-64
2023/10/01 07:42:04;;;;;;;8.70;4.47;;;16.10;99.90;;;;;;5037993;28;20037;-64
2023/10/01 07:44:30;;;;;;;8.60;3.85;;;16.20;99.90;;;;;;5035761;28;20542;-64
2023/10/01 07:46:56;;;;;;;8.35;4.22;;;16.30;99.90;;;;;;5037931;28;20088;-64
2023/10/01 07:49:22;;;;;;;9.45;4.50;;;16.30;99.90;;;;;;5038087;28;20020;-64
2023/10/01 07:51:50;;;;;;;9.95;4.32;;;16.40;99.90;;;;;;5037996;28;20030;-64
2023/10/01 07:54:22;;;;;;;9.77;4.07;;;16.50;99.90;;;;;;5038297;28;20501;-64
2023/10/01 07:56:56;;;;;;;10.48;4.47;;;16.50;99.90;;;;;;5033939;28;20025;-64
2023/10/01 08:04:58;;;;;;;9.65;3.97;;;16.80;99.90;;;;;;5038097;28;20061;-64
2023/10/01 08:07:39;;;;;;;9.45;4.03;;;16.90;99.90;;;;;;5037725;28;20045;-64
2023/10/01 08:10:16;;;;;;;10.63;4.45;;;17.00;99.90;;;;;;5041232;28;20037;-64
2023/10/01 08:20:58;;;;;;;7.75;3.80;;;17.30;99.90;;;;;;5033837;28;20401;-64
2023/10/01 08:23:28;;;;;;;9.05;4.30;;;17.30;99.90;;;;;;5035353;28;20059;-64
2023/10/01 08:25:55;;;;;;;9.25;4.22;;;17.40;99.90;;;;;;5040581;28;20030;-64
2023/10/01 08:31:01;;;;;;;9.38;3.80;;;17.50;99.90;;;;;;5046472;28;20401;-64
2023/10/01 08:33:32;;;;;;;9.27;3.90;;;17.60;99.90;;;;;;5044176;28;20370;-64
2023/10/01 08:36:12;;;;;;;8.80;3.85;;;17.70;99.90;;;;;;5044544;28;20021;-65
2023/10/01 08:38:47;;;;;;;7.50;3.72;;;17.70;99.90;;;;;;5045021;28;20044;-64
2023/10/01 08:41:33;;;;;;;8.57;3.72;;;17.80;99.90;;;;;;5043820;28;20013;-64
2023/10/01 08:44:09;;;;;;;8.18;3.75;;;17.90;99.90;;;;;;5042012;28;20025;-64
2023/10/01 08:46:39;;;;;;;8.50;3.60;;;17.90;99.90;;;;;;5043543;28;20038;-64
2023/10/01 08:49:22;;;;;;;8.35;3.55;;;18.00;99.90;;;;;;5036160;28;20029;-64
2023/10/01 08:51:52;;;;;;;7.75;4.10;;;18.10;99.90;;;;;;5036990;28;20021;-64
2023/10/01 08:54:24;;;;;;;8.20;3.95;;;18.10;99.90;;;;;;5036172;28;20017;-64
2023/10/01 08:56:52;;;;;;;8.93;4.10;;;18.30;99.90;;;;;;5036264;28;20021;-64
2023/10/01 08:59:24;;;;;;;9.35;3.63;;;18.30;99.90;;;;;;5036141;28;20037;-64
2023/10/01 09:01:55;;;;;;;10.20;4.50;;;18.40;99.90;;;;;;5044821;28;20053;-65
2023/10/01 09:07:20;;;;;;;7.15;3.78;;;18.50;99.90;;;;;;5027539;28;20397;-64
2023/10/01 09:10:07;;;;;;;9.68;3.90;;;18.60;99.90;;;;;;5036350;28;20075;-64
2023/10/01 09:12:45;;;;;;;8.43;4.03;;;18.70;99.90;;;;;;5035209;28;20024;-64
2023/10/01 09:15:38;;;;;;;7.18;3.95;;;18.70;99.90;;;;;;5025511;28;20025;-64
2023/10/01 09:18:10;;;;;;;8.00;3.45;;;18.80;99.90;;;;;;5029393;28;20108;-64
2023/10/01 09:20:38;;;;;;;8.48;3.75;;;18.90;99.90;;;;;;5035545;28;20560;-65
2023/10/01 09:23:05;;;;;;;9.45;3.83;;;18.90;99.90;;;;;;5028774;28;20449;-65
2023/10/01 09:25:34;;;;;;;7.32;3.83;;;19.00;99.90;;;;;;5036764;28;20100;-65
2023/10/01 09:28:04;;;;;;;8.95;3.65;;;19.10;99.90;;;;;;5037001;28;20052;-65
2023/10/01 09:30:35;;;;;;;6.88;3.38;;;19.20;99.90;;;;;;5031272;28;20482;-65
2023/10/01 09:33:14;;;;;;;8.05;3.60;;;19.20;99.90;;;;;;5036869;28;20038;-65
2023/10/01 09:36:03;;;;;;;9.55;3.58;;;19.30;99.90;;;;;;5037032;28;20052;-65
2023/10/01 09:38:29;;;;;;;7.63;3.42;;;19.40;99.90;;;;;;5034782;28;20026;-64
2023/10/01 09:40:56;;;;;;;7.95;3.85;;;19.50;99.90;;;;;;5036119;28;20028;-65
2023/10/01 09:43:27;;;;;;;7.00;3.33;;;19.50;99.90;;;;;;5036150;28;20022;-65
2023/10/01 09:45:54;;;;;;;8.30;3.90;;;19.60;99.90;;;;;;5036097;28;20072;-64
2023/10/01 09:48:36;;;;;;;7.05;3.80;;;19.60;99.90;;;;;;5026983;28;20013;-64
2023/10/01 09:51:13;;;;;;;8.63;3.80;;;19.70;99.90;;;;;;5035848;28;20026;-64
2023/10/01 09:53:44;;;;;;;7.18;3.90;;;19.70;99.90;;;;;;5036935;28;20032;-64
2023/10/01 09:56:14;;;;;;;8.70;3.90;;;19.80;99.90;;;;;;5037163;28;20501;-65
2023/10/01 09:58:46;;;;;;;6.78;3.40;;;19.90;99.90;;;;;;5035825;28;20536;-64
2023/10/01 10:01:17;;;;;;;8.77;3.85;;;20.00;99.90;;;;;;5036755;28;20030;-64
2023/10/01 10:03:43;;;;;;;6.63;3.47;;;20.10;99.90;;;;;;5036646;28;20060;-64
2023/10/01 10:06:11;;;;;;;7.85;3.75;;;20.10;99.90;;;;;;5036610;28;21164;-64
2023/10/01 10:08:39;;;;;;;8.35;3.40;;;20.20;99.90;;;;;;5040326;28;20053;-64
2023/10/01 10:11:13;;;;;;;8.90;3.58;;;20.30;99.90;;;;;;5040120;28;20474;-64
2023/10/01 10:13:46;;;;;;;7.45;3.40;;;20.40;99.90;;;;;;5040151;28;20048;-64
2023/10/01 10:16:31;;;;;;;7.27;3.37;;;20.40;99.90;;;;;;5040461;28;20026;-65
2023/10/01 10:19:12;;;;;;;6.60;3.28;;;20.50;99.90;;;;;;5039983;28;20489;-65
2023/10/01 10:24:28;;;;;;;6.18;3.38;;;20.70;99.90;;;;;;5040308;28;20421;-65
2023/10/01 10:26:58;;;;;;;8.57;3.58;;;20.80;99.90;;;;;;5040091;28;20060;-64
2023/10/01 10:29:24;;;;;;;7.03;3.28;;;20.90;99.90;;;;;;5040268;28;20099;-64
2023/10/01 10:32:09;;;;;;;5.18;2.75;;;21.00;99.90;;;;;;5039810;28;20068;-64
2023/10/01 10:34:47;;;;;;;6.28;3.10;;;21.00;99.90;;;;;;5039949;28;20042;-65
2023/10/01 10:37:35;;;;;;;7.65;2.97;;;21.10;99.90;;;;;;5040188;28;20028;-65
2023/10/01 10:40:44;;;;;;;6.97;3.30;;;21.20;99.90;;;;;;5037494;28;20108;-65
2023/10/01 10:42:58;;;;;;;6.03;2.88;;;21.30;99.90;;;;;;5034768;28;20025;-66
2023/10/01 10:45:31;;;;;;;6.07;3.15;;;21.40;99.90;;;;;;5037871;28;20033;-65
2023/10/01 10:47:58;;;;;;;7.28;3.20;;;21.50;99.90;;;;;;5038917;28;20021;-65
2023/10/01 10:50:56;;;;;;;7.38;3.65;;;21.50;99.90;;;;;;5039700;28;20185;-65
2023/10/01 10:53:23;;;;;;;6.57;3.20;;;21.50;99.90;;;;;;5031701;28;20037;-64
2023/10/01 10:55:55;;;;;;;7.22;3.50;;;21.60;99.90;;;;;;5041728;28;20072;-65
2023/10/01 10:58:28;;;;;;;6.10;3.15;;;21.60;99.90;;;;;;5038977;28;20037;-64
2023/10/01 11:00:55;;;;;;;5.35;2.85;;;21.70;99.90;;;;;;5039000;28;20017;-64
2023/10/01 11:03:41;;;;;;;5.30;2.90;;;21.80;99.90;;;;;;5038777;28;20022;-65
2023/10/01 11:07:01;;;;;;;6.28;2.92;;;21.90;99.90;;;;;;5039288;28;20028;-64
2023/10/01 11:09:30;;;;;;;5.68;2.90;;;21.90;99.90;;;;;;5037905;28;20041;-65
2023/10/01 11:12:06;;;;;;;5.40;3.08;;;22.00;99.90;;;;;;5038783;28;20387;-64
2023/10/01 11:14:36;;;;;;;6.97;3.00;;;22.00;99.90;;;;;;5039099;28;20021;-65
2023/10/01 11:17:06;;;;;;;5.35;2.90;;;22.00;99.90;;;;;;5038475;28;20482;-64
2023/10/01 11:19:36;;;;;;;6.45;3.42;;;22.10;99.90;;;;;;5037109;28;20092;-64
2023/10/01 11:22:04;;;;;;;6.60;3.13;;;22.20;99.90;;;;;;5038905;28;20036;-64
2023/10/01 11:24:39;;;;;;;5.95;3.15;;;22.20;99.90;;;;;;5039026;28;20113;-64
2023/10/01 11:27:22;;;;;;;5.35;2.78;;;22.20;99.90;;;;;;5038598;28;20033;-65
2023/10/01 11:30:13;;;;;;;6.32;3.00;;;22.30;99.90;;;;;;5038224;28;20021;-65
2023/10/01 11:36:09;;;;;;;5.55;2.53;;;22.50;99.90;;;;;;5038841;28;20109;-64
2023/10/01 11:38:43;;;;;;;4.85;2.50;;;22.50;99.90;;;;;;5038573;28;20457;-64
2023/10/01 11:41:12;;;;;;;4.75;2.63;;;22.60;99.90;;;;;;5038540;28;20017;-64
2023/10/01 11:44:00;;;;;;;5.55;2.78;;;22.70;99.90;;;;;;5038430;28;20478;-64
2023/10/01 11:46:38;;;;;;;5.72;2.80;;;22.70;99.90;;;;;;5038476;28;20037;-64
2023/10/01 11:49:10;;;;;;;5.43;2.60;;;22.90;99.90;;;;;;5037586;28;20025;-64
2023/10/01 11:51:43;;;;;;;5.38;2.80;;;22.90;99.90;;;;;;5038459;28;20561;-64
2023/10/01 11:54:11;;;;;;;5.00;2.75;;;23.00;99.90;;;;;;5039333;28;20038;-64
2023/10/01 11:56:42;;;;;;;5.15;2.63;;;23.10;99.90;;;;;;5038459;28;20029;-64
2023/10/01 11:59:10;;;;;;;7.40;3.17;;;23.20;99.90;;;;;;5038090;28;20490;-64
2023/10/01 12:01:47;;;;;;;5.18;2.65;;;23.20;99.90;;;;;;5038564;28;20017;-64
2023/10/01 12:04:43;;;;;;;7.53;2.83;;;23.30;99.90;;;;;;5038022;28;20038;-64
2023/10/01 12:07:16;;;;;;;4.65;2.67;;;23.30;99.90;;;;;;5038517;28;20018;-64
2023/10/01 12:09:50;;;;;;;4.63;2.28;;;23.40;99.90;;;;;;5038429;28;20047;-64
2023/10/01 12:12:21;;;;;;;5.40;2.47;;;23.50;99.90;;;;;;5038087;28;20075;-64
2023/10/01 12:14:57;;;;;;;3.75;2.42;;;23.60;99.90;;;;;;5038238;28;20493;-64
2023/10/01 12:17:27;;;;;;;4.50;2.40;;;23.50;99.90;;;;;;5036453;28;20021;-64
2023/10/01 12:19:54;;;;;;;4.50;2.38;;;23.50;99.90;;;;;;5038354;28;20029;-64
2023/10/01 12:22:23;;;;;;;5.35;2.83;;;23.60;99.90;;;;;;5035675;28;20025;-64
2023/10/01 12:24:56;;;;;;;6.10;2.55;;;23.70;99.90;;;;;;5037926;28;20459;-64
2023/10/01 12:30:27;;;;;;;5.07;2.50;;;23.80;99.90;;;;;;5032310;28;20030;-64
2023/10/01 12:33:02;;;;;;;4.78;2.17;;;23.80;99.90;;;;;;5037575;28;20029;-64
2023/10/01 12:35:28;;;;;;;4.60;2.40;;;24.00;99.90;;;;;;5036239;28;20036;-63
2023/10/01 12:40:52;;;;;;;3.90;2.33;;;24.10;99.90;;;;;;5036122;28;20022;-64
2023/10/01 12:43:36;;;;;;;3.40;1.98;;;24.20;99.90;;;;;;5034300;28;20029;-64
2023/10/01 12:46:08;;;;;;;3.90;1.98;;;24.20;99.90;;;;;;5036365;28;20030;-64
2023/10/01 12:49:14;;;;;;;3.80;2.20;;;24.30;99.90;;;;;;5037416;28;20013;-64
2023/10/01 12:51:33;;;;;;;5.07;2.28;;;24.30;99.90;;;;;;5037354;28;20422;-64
2023/10/01 12:53:59;;;;;;;4.35;1.90;;;24.30;99.90;;;;;;5037408;28;20500;-64
2023/10/01 12:56:47;;;;;;;4.30;2.00;;;24.30;99.90;;;;;;5039280;28;20119;-64
2023/10/01 12:59:36;;;;;;;3.85;2.20;;;24.40;99.60;;;;;;5037140;28;20124;-64
2023/10/01 13:01:59;;;;;;;4.53;2.10;;;24.40;99.60;;;;;;5037105;28;20401;-64
2023/10/01 13:04:32;;;;;;;3.58;2.00;;;24.50;98.10;;;;;;5037384;28;20157;-64
2023/10/01 13:07:03;;;;;;;3.60;1.83;;;24.60;97.90;;;;;;5037425;28;20037;-65
2023/10/01 13:12:25;;;;;;;3.92;2.10;;;24.70;98.50;;;;;;5036554;28;20510;-64
2023/10/01 13:17:43;;;;;;;4.43;2.22;;;24.90;97.90;;;;;;5036931;28;20032;-64
2023/10/01 13:20:22;;;;;;;4.15;2.03;;;24.90;97.50;;;;;;5036636;28;20033;-64
2023/10/01 13:22:48;;;;;;;4.03;2.15;;;24.90;97.80;;;;;;5036233;28;20017;-64
2023/10/01 13:25:19;;;;;;;3.85;2.10;;;24.90;97.70;;;;;;5036907;28;20478;-65
2023/10/01 13:27:49;;;;;;;3.83;2.03;;;25.00;97.80;;;;;;5037246;28;20454;-64
2023/10/01 13:30:18;;;;;;;4.47;2.28;;;25.10;96.80;;;;;;5036129;28;20029;-64
2023/10/01 13:33:10;;;;;;;4.85;2.25;;;25.10;96.60;;;;;;5032939;28;20409;-65
2023/10/01 13:35:36;;;;;;;3.70;2.22;;;25.20;95.60;;;;;;5033314;28;20091;-64
2023/10/01 14:11:06;;;;;;;3.00;1.75;;;25.50;94.20;;;;;;5038742;28;20068;-64
2023/10/01 14:13:35;;;;;;;3.30;1.83;;;25.50;94.00;;;;;;5039778;28;20045;-64
2023/10/01 14:16:11;;;;;;;4.13;2.05;;;25.60;93.80;;;;;;5037699;28;20041;-64
2023/10/01 14:18:41;;;;;;;2.53;1.58;;;25.60;95.10;;;;;;5039252;28;20067;-64
2023/10/01 14:21:12;;;;;;;4.30;1.98;;;25.60;94.80;;;;;;5039168;28;20482;-64
2023/10/01 14:23:45;;;;;;;3.92;2.08;;;25.70;94.40;;;;;;5038167;28;20025;-64
2023/10/01 14:26:12;;;;;;;4.15;2.10;;;25.70;93.80;;;;;;5039178;28;20026;-64
2023/10/01 14:28:39;;;;;;;4.43;2.17;;;25.80;94.20;;;;;;5035827;28;20498;-64
2023/10/01 14:31:07;;;;;;;4.30;1.80;;;25.80;92.80;;;;;;5039057;28;20072;-64
2023/10/01 14:33:35;;;;;;;4.60;2.03;;;25.80;92.60;;;;;;5034889;28;20029;-63
2023/10/01 14:36:04;;;;;;;3.97;1.90;;;25.80;93.00;;;;;;5038278;28;20471;-61
2023/10/01 14:38:37;;;;;;;4.22;1.55;;;25.80;93.10;;;;;;5037415;28;20025;-62
2023/10/01 14:41:09;;;;;;;4.20;1.92;;;25.90;93.30;;;;;;5036701;28;20395;-62
2023/10/01 14:43:48;;;;;;;3.45;1.90;;;25.90;93.90;;;;;;5038737;28;20067;-62